createdAt,value
2023-04-15T00:01:19.368Z,12.67
2023-04-15T00:03:48.760Z,12.63
2023-04-15T00:06:18.578Z,12.53
2023-04-15T00:08:46.714Z,12.43
2023-04-15T00:11:15.128Z,12.37
2023-04-15T00:13:43.389Z,12.32
2023-04-15T00:16:12.532Z,12.22
2023-04-15T00:18:40.699Z,12.11
2023-04-15T00:21:09.169Z,12.05
2023-04-15T00:23:38.695Z,12.03
2023-04-15T00:26:07.513Z,12.05
2023-04-15T00:28:35.762Z,12.06
2023-04-15T00:31:04.570Z,12.10
2023-04-15T00:33:32.877Z,12.13
2023-04-15T00:36:00.979Z,12.19
2023-04-15T00:38:29.099Z,12.23
2023-04-15T00:40:58.872Z,12.23
2023-04-15T00:43:27.821Z,12.24
2023-04-15T00:45:58.070Z,12.25
2023-04-15T00:48:28.076Z,12.25
2023-04-15T00:50:56.296Z,12.24
2023-04-15T00:53:24.689Z,12.23
2023-04-15T00:55:52.860Z,12.20
2023-04-15T00:58:22.460Z,12.17
2023-04-15T01:00:54.316Z,12.13
2023-04-15T01:03:22.869Z,12.11
2023-04-15T01:05:53.057Z,12.08
2023-04-15T01:08:21.168Z,12.09
2023-04-15T01:10:49.342Z,12.08
2023-04-15T01:13:17.633Z,12.04
2023-04-15T01:15:47.265Z,11.98
2023-04-15T01:18:15.884Z,11.92
2023-04-15T01:20:44.063Z,11.86
2023-04-15T01:23:12.223Z,11.81
2023-04-15T01:25:43.258Z,11.80
2023-04-15T01:28:11.630Z,11.80
2023-04-15T01:30:39.881Z,11.80
2023-04-15T01:33:07.923Z,11.79
2023-04-15T01:35:36.432Z,11.78
2023-04-15T01:38:07.564Z,11.72
2023-04-15T01:40:35.990Z,11.69
2023-04-15T01:43:05.575Z,11.66
2023-04-15T01:45:33.731Z,11.65
2023-04-15T01:48:02.340Z,11.64
2023-04-15T01:50:30.603Z,11.58
2023-04-15T01:52:58.737Z,11.55
2023-04-15T01:55:27.203Z,11.47
2023-04-15T01:57:55.380Z,11.40
2023-04-15T02:00:24.984Z,11.37
2023-04-15T02:02:53.253Z,11.35
2023-04-15T02:05:21.540Z,11.31
2023-04-15T02:07:50.354Z,11.28
2023-04-15T02:10:18.563Z,11.22
2023-04-15T02:12:46.664Z,11.20
2023-04-15T02:15:15.082Z,11.17
2023-04-15T02:17:46.165Z,11.15
2023-04-15T02:20:14.585Z,11.09
2023-04-15T02:22:42.787Z,11.06
2023-04-15T02:25:11.796Z,11.01
2023-04-15T02:27:39.987Z,10.97
2023-04-15T02:30:09.458Z,10.97
2023-04-15T02:32:38.442Z,10.97
2023-04-15T02:35:10.022Z,10.95
2023-04-15T02:37:43.393Z,10.95
2023-04-15T02:40:13.310Z,10.93
2023-04-15T02:42:41.668Z,10.95
2023-04-15T02:45:10.558Z,11.00
2023-04-15T02:50:13.359Z,11.10
2023-04-15T02:52:42.353Z,11.10
2023-04-15T02:55:10.984Z,11.10
2023-04-15T02:57:39.366Z,11.07
2023-04-15T03:00:11.654Z,11.06
2023-04-15T03:02:41.199Z,11.02
2023-04-15T03:05:13.944Z,11.03
2023-04-15T03:07:42.120Z,11.06
2023-04-15T03:10:11.629Z,11.09
2023-04-15T03:12:40.751Z,11.12
2023-04-15T03:15:11.459Z,11.14
2023-04-15T03:17:39.647Z,11.13
2023-04-15T03:20:08.906Z,11.10
2023-04-15T03:22:38.552Z,11.09
2023-04-15T03:25:07.806Z,11.03
2023-04-15T03:27:35.915Z,10.95
2023-04-15T03:30:04.092Z,10.93
2023-04-15T03:32:32.616Z,10.96
2023-04-15T03:35:00.888Z,10.99
2023-04-15T03:37:29.033Z,10.93
2023-04-15T03:39:58.521Z,10.88
2023-04-15T03:42:27.102Z,10.88
2023-04-15T03:44:55.294Z,10.91
2023-04-15T03:47:23.661Z,10.96
2023-04-15T03:49:51.731Z,11.01
2023-04-15T03:52:19.888Z,11.06
2023-04-15T03:54:48.032Z,11.12
2023-04-15T03:57:17.539Z,11.15
2023-04-15T03:59:45.607Z,11.20
2023-04-15T04:02:13.812Z,11.25
2023-04-15T04:04:42.233Z,11.26
2023-04-15T04:07:10.491Z,11.30
2023-04-15T04:09:40.715Z,11.26
2023-04-15T04:12:09.099Z,11.25
2023-04-15T04:14:38.645Z,11.24
2023-04-15T04:17:06.843Z,11.24
2023-04-15T04:19:35.043Z,11.26
2023-04-15T04:22:03.344Z,11.30
2023-04-15T04:24:31.745Z,11.36
2023-04-15T04:26:59.909Z,11.40
2023-04-15T04:29:28.013Z,11.42
2023-04-15T04:31:57.556Z,11.43
2023-04-15T04:34:25.792Z,11.44
2023-04-15T04:36:53.953Z,11.40
2023-04-15T04:39:22.043Z,11.39
2023-04-15T04:41:52.238Z,11.38
2023-04-15T04:44:20.364Z,11.31
2023-04-15T04:46:48.549Z,11.20
2023-04-15T04:49:18.127Z,11.10
2023-04-15T04:51:47.209Z,11.09
2023-04-15T04:54:15.354Z,11.09
2023-04-15T04:56:43.529Z,11.13
2023-04-15T04:59:11.759Z,11.20
2023-04-15T05:01:40.006Z,11.26
2023-04-15T05:04:08.388Z,11.30
2023-04-15T05:06:37.945Z,11.35
2023-04-15T05:09:06.185Z,11.39
2023-04-15T05:11:34.687Z,11.41
2023-04-15T05:14:02.882Z,11.43
2023-04-15T05:16:31.141Z,11.45
2023-04-15T05:18:59.552Z,11.49
2023-04-15T05:21:28.387Z,11.49
2023-04-15T05:23:57.967Z,11.50
2023-04-15T05:26:27.644Z,11.54
2023-04-15T05:28:55.743Z,11.59
2023-04-15T05:31:24.035Z,11.60
2023-04-15T05:33:52.297Z,11.64
2023-04-15T05:36:20.521Z,11.68
2023-04-15T05:38:48.616Z,11.66
2023-04-15T05:41:19.876Z,11.70
2023-04-15T05:43:48.225Z,11.74
2023-04-15T05:46:16.436Z,11.76
2023-04-15T05:48:44.592Z,11.79
2023-04-15T05:51:12.888Z,11.78
2023-04-15T05:53:41.745Z,11.72
2023-04-15T05:56:09.888Z,11.69
2023-04-15T05:58:39.466Z,11.69
2023-04-15T06:01:07.667Z,11.73
2023-04-15T06:03:35.875Z,11.82
2023-04-15T06:06:04.152Z,11.94
2023-04-15T06:08:32.311Z,12.01
2023-04-15T06:11:00.439Z,12.03
2023-04-15T06:13:28.660Z,12.07
2023-04-15T06:15:58.286Z,12.05
2023-04-15T06:18:26.396Z,12.03
2023-04-15T06:20:54.500Z,12.07
2023-04-15T06:23:22.708Z,12.13
2023-04-15T06:25:50.869Z,12.18
2023-04-15T06:28:19.090Z,12.33
2023-04-15T06:30:47.243Z,12.51
2023-04-15T06:33:16.967Z,12.63
2023-04-15T06:35:45.136Z,12.76
2023-04-15T06:38:13.204Z,12.99
2023-04-15T06:40:41.385Z,13.27
2023-04-15T06:43:09.935Z,13.62
2023-04-15T06:45:38.264Z,13.84
2023-04-15T06:48:07.052Z,14.00
2023-04-15T06:50:36.899Z,14.13
2023-04-15T06:53:05.121Z,14.25
2023-04-15T06:55:34.022Z,14.44
2023-04-15T06:58:02.294Z,14.48
2023-04-15T07:00:30.735Z,14.31
2023-04-15T07:02:58.944Z,14.28
2023-04-15T07:05:28.037Z,14.34
2023-04-15T07:07:57.680Z,14.42
2023-04-15T07:10:26.168Z,14.49
2023-04-15T07:12:54.315Z,14.60
2023-04-15T07:15:22.492Z,14.71
2023-04-15T07:17:50.714Z,14.78
2023-04-15T07:20:19.041Z,14.73
2023-04-15T07:22:47.230Z,14.62
2023-04-15T07:25:17.761Z,14.58
2023-04-15T07:27:45.972Z,14.59
2023-04-15T07:30:14.524Z,14.61
2023-04-15T07:32:43.552Z,14.55
2023-04-15T07:35:11.956Z,14.47
2023-04-15T07:37:40.358Z,14.40
2023-04-15T07:40:09.785Z,14.39
2023-04-15T07:42:41.502Z,14.27
2023-04-15T07:45:10.617Z,14.20
2023-04-15T07:47:38.859Z,14.09
2023-04-15T07:50:07.723Z,13.90
2023-04-15T07:52:39.515Z,13.76
2023-04-15T07:55:08.948Z,13.73
2023-04-15T07:57:39.291Z,13.70
2023-04-15T08:00:09.666Z,13.65
2023-04-15T08:02:38.952Z,13.52
2023-04-15T08:05:12.373Z,13.44
2023-04-15T08:07:51.404Z,13.36
2023-04-15T08:10:21.637Z,13.28
2023-04-15T08:12:54.471Z,13.22
2023-04-15T08:15:25.974Z,13.21
2023-04-15T08:17:57.648Z,13.20
2023-04-15T08:20:31.553Z,13.20
2023-04-15T08:22:59.922Z,13.20
2023-04-15T08:25:28.663Z,13.19
2023-04-15T08:27:59.027Z,13.14
2023-04-15T08:30:28.620Z,13.10
2023-04-15T08:32:57.726Z,13.01
2023-04-15T08:35:26.235Z,12.89
2023-04-15T08:37:54.890Z,12.70
2023-04-15T08:40:28.596Z,12.61
2023-04-15T08:43:01.904Z,12.54
2023-04-15T08:45:30.836Z,12.44
2023-04-15T08:47:59.898Z,12.33
2023-04-15T08:50:32.275Z,12.30
2023-04-15T08:53:01.218Z,12.28
2023-04-15T08:55:34.593Z,12.26
2023-04-15T08:58:04.614Z,12.22
2023-04-15T09:00:33.630Z,12.18
2023-04-15T09:03:02.329Z,12.11
2023-04-15T09:05:33.516Z,12.03
2023-04-15T09:08:01.779Z,12.07
2023-04-15T09:10:30.394Z,12.19
2023-04-15T09:12:59.004Z,12.15
2023-04-15T09:15:29.690Z,12.20
2023-04-15T09:17:58.409Z,12.15
2023-04-15T09:20:26.619Z,12.10
2023-04-15T09:22:54.763Z,12.14
2023-04-15T09:25:34.771Z,12.18
2023-04-15T09:28:04.385Z,12.20
2023-04-15T09:30:34.126Z,12.22
2023-04-15T09:33:08.221Z,12.10
2023-04-15T09:35:37.302Z,12.07
2023-04-15T09:38:07.564Z,12.14
2023-04-15T09:40:36.604Z,12.20
2023-04-15T09:43:05.611Z,12.34
2023-04-15T09:45:37.251Z,12.40
2023-04-15T09:48:18.432Z,12.54
2023-04-15T09:50:46.920Z,12.68
2023-04-15T09:53:19.214Z,12.72
2023-04-15T09:55:48.308Z,12.83
2023-04-15T09:58:20.796Z,13.01
2023-04-15T10:00:51.290Z,13.08
2023-04-15T10:03:22.642Z,13.19
2023-04-15T10:05:52.766Z,13.27
2023-04-15T10:08:23.887Z,13.33
2023-04-15T10:10:52.827Z,13.33
2023-04-15T10:13:23.762Z,13.44
2023-04-15T10:15:57.446Z,13.58
2023-04-15T10:18:28.264Z,13.65
2023-04-15T10:20:56.763Z,13.71
2023-04-15T10:23:25.925Z,13.77
2023-04-15T10:25:55.079Z,13.62
2023-04-15T10:28:23.975Z,13.47
2023-04-15T10:30:54.427Z,13.24
2023-04-15T10:33:25.094Z,13.14
2023-04-15T10:35:55.776Z,12.93
2023-04-15T10:38:34.497Z,12.76
2023-04-15T10:41:21.638Z,12.67
2023-04-15T10:43:53.077Z,12.52
2023-04-15T10:46:24.587Z,12.45
2023-04-15T10:48:54.092Z,12.44
2023-04-15T10:51:31.025Z,12.45
2023-04-15T10:54:00.925Z,12.61
2023-04-15T10:56:31.054Z,12.91
2023-04-15T10:59:01.466Z,13.13
2023-04-15T11:01:56.838Z,13.29
2023-04-15T11:04:53.118Z,13.48
2023-04-15T11:07:41.226Z,13.60
2023-04-15T11:10:53.066Z,13.71
2023-04-15T11:13:29.507Z,13.74
2023-04-15T11:16:01.639Z,13.78
2023-04-15T11:18:35.793Z,13.88
2023-04-15T11:21:06.440Z,13.94
2023-04-15T11:23:36.982Z,14.01
2023-04-15T11:26:09.415Z,14.12
2023-04-15T11:28:39.166Z,14.17
2023-04-15T11:31:10.888Z,14.20
2023-04-15T11:33:47.509Z,14.24
2023-04-15T11:36:15.825Z,14.27
2023-04-15T11:38:45.985Z,14.32
2023-04-15T11:41:14.653Z,14.35
2023-04-15T11:43:42.891Z,14.36
2023-04-15T11:46:11.093Z,14.43
2023-04-15T11:48:44.513Z,14.56
2023-04-15T11:51:13.573Z,14.72
2023-04-15T11:53:44.099Z,14.88
2023-04-15T11:56:18.152Z,14.94
2023-04-15T11:58:46.664Z,14.90
2023-04-15T12:01:15.299Z,15.00
2023-04-15T12:03:47.258Z,15.19
2023-04-15T12:06:19.396Z,15.35
2023-04-15T12:09:09.531Z,15.51
2023-04-15T12:11:45.978Z,15.54
2023-04-15T12:14:26.953Z,15.54
2023-04-15T12:16:58.415Z,15.50
2023-04-15T12:19:29.482Z,15.50
2023-04-15T12:22:01.249Z,15.47
2023-04-15T12:24:32.544Z,15.41
2023-04-15T12:27:04.518Z,15.38
2023-04-15T12:29:34.538Z,15.32
2023-04-15T12:32:08.301Z,15.29
2023-04-15T12:34:39.850Z,15.22
2023-04-15T12:37:10.251Z,15.11
2023-04-15T12:39:40.057Z,15.09
2023-04-15T12:42:09.193Z,15.16
2023-04-15T12:44:38.261Z,15.22
2023-04-15T12:47:06.728Z,15.22
2023-04-15T12:49:35.334Z,15.31
2023-04-15T12:52:05.796Z,15.35
2023-04-15T12:54:34.724Z,15.39
2023-04-15T12:57:05.913Z,15.37
2023-04-15T12:59:35.260Z,15.42
2023-04-15T13:02:04.045Z,15.36
2023-04-15T13:04:32.418Z,15.32
2023-04-15T13:07:00.684Z,15.33
2023-04-15T13:09:30.214Z,15.36
2023-04-15T13:11:58.356Z,15.39
2023-04-15T13:14:27.269Z,15.40
2023-04-15T13:16:55.647Z,15.40
2023-04-15T13:19:23.964Z,15.37
2023-04-15T13:21:52.335Z,15.34
2023-04-15T13:24:20.499Z,15.32
2023-04-15T13:26:50.493Z,15.35
2023-04-15T13:29:18.966Z,15.34
2023-04-15T13:31:47.204Z,15.33
2023-04-15T13:34:15.724Z,15.40
2023-04-15T13:36:43.937Z,15.52
2023-04-15T13:39:12.022Z,15.63
2023-04-15T13:41:40.129Z,15.70
2023-04-15T13:44:09.753Z,15.80
2023-04-15T13:46:39.599Z,15.88
2023-04-15T13:49:07.764Z,15.95
2023-04-15T13:51:37.019Z,15.96
2023-04-15T13:54:05.687Z,15.93
2023-04-15T13:56:34.162Z,15.89
2023-04-15T13:59:03.439Z,15.83
2023-04-15T14:01:33.005Z,15.80
2023-04-15T14:04:01.177Z,15.78
2023-04-15T14:06:30.288Z,15.83
2023-04-15T14:08:58.590Z,15.87
2023-04-15T14:11:26.775Z,15.89
2023-04-15T14:13:54.898Z,15.87
2023-04-15T14:16:23.870Z,15.89
2023-04-15T14:18:53.634Z,15.88
2023-04-15T14:21:22.181Z,15.85
2023-04-15T14:23:50.558Z,15.81
2023-04-15T14:26:18.687Z,15.76
2023-04-15T14:28:48.476Z,15.71
2023-04-15T14:31:16.765Z,15.64
2023-04-15T14:33:45.029Z,15.58
2023-04-15T14:36:14.750Z,15.52
2023-04-15T14:38:42.920Z,15.50
2023-04-15T14:41:11.226Z,15.48
2023-04-15T14:43:39.494Z,15.48
2023-04-15T14:46:08.690Z,15.46
2023-04-15T14:48:37.031Z,15.42
2023-04-15T14:51:05.459Z,15.46
2023-04-15T14:53:35.124Z,15.46
2023-04-15T14:56:03.326Z,15.42
2023-04-15T14:58:32.872Z,15.37
2023-04-15T15:01:02.025Z,15.33
2023-04-15T15:03:30.462Z,15.28
2023-04-15T15:05:58.916Z,15.20
2023-04-15T15:08:27.347Z,15.12
2023-04-15T15:10:56.916Z,15.00
2023-04-15T15:13:25.457Z,14.91
2023-04-15T15:15:53.660Z,14.83
2023-04-15T15:18:21.937Z,14.77
2023-04-15T15:20:50.095Z,14.73
2023-04-15T15:23:18.374Z,14.69
2023-04-15T15:25:48.133Z,14.66
2023-04-15T15:28:17.765Z,14.61
2023-04-15T15:30:46.101Z,14.64
2023-04-15T15:33:14.306Z,14.66
2023-04-15T15:35:42.489Z,14.67
2023-04-15T15:38:13.487Z,14.67
2023-04-15T15:40:41.665Z,14.65
2023-04-15T15:43:09.792Z,14.63
2023-04-15T15:45:39.504Z,14.65
2023-04-15T15:48:08.272Z,14.61
2023-04-15T15:50:36.447Z,14.56
2023-04-15T15:53:04.535Z,14.53
2023-04-15T15:55:32.645Z,14.52
2023-04-15T15:58:00.841Z,14.47
2023-04-15T16:00:28.949Z,14.40
2023-04-15T16:05:29.703Z,14.29
2023-04-15T16:07:57.960Z,14.25
2023-04-15T16:10:26.254Z,14.18
2023-04-15T16:12:54.362Z,14.04
2023-04-15T16:15:23.823Z,13.92
2023-04-15T16:17:52.259Z,13.81
2023-04-15T16:20:21.907Z,13.71
2023-04-15T16:22:50.194Z,13.64
2023-04-15T16:25:18.494Z,13.62
2023-04-15T16:27:59.361Z,13.58
2023-04-15T16:30:31.711Z,13.49
2023-04-15T16:33:00.066Z,13.47
2023-04-15T16:35:29.753Z,13.45
2023-04-15T16:37:57.924Z,13.36
2023-04-15T16:40:26.158Z,13.33
2023-04-15T16:42:54.282Z,13.32
2023-04-15T16:45:22.566Z,13.27
2023-04-15T16:47:50.907Z,13.26
2023-04-15T16:50:19.099Z,13.20
2023-04-15T16:52:48.579Z,13.14
2023-04-15T16:55:16.788Z,13.13
2023-04-15T16:58:02.230Z,13.14
2023-04-15T17:00:32.386Z,13.13
2023-04-15T17:03:01.464Z,13.08
2023-04-15T17:05:30.608Z,13.03
2023-04-15T17:08:00.490Z,12.95
2023-04-15T17:10:29.245Z,12.86
2023-04-15T17:12:58.032Z,12.78
2023-04-15T17:15:26.512Z,12.68
2023-04-15T17:17:54.929Z,12.61
2023-04-15T17:20:23.353Z,12.53
2023-04-15T17:22:51.571Z,12.42
2023-04-15T17:25:21.426Z,12.32
2023-04-15T17:27:49.530Z,12.26
2023-04-15T17:30:17.673Z,12.19
2023-04-15T17:32:46.087Z,12.12
2023-04-15T17:35:14.454Z,12.10
2023-04-15T17:37:42.651Z,12.09
2023-04-15T17:40:11.731Z,12.09
2023-04-15T17:42:41.470Z,12.08
2023-04-15T17:45:10.394Z,12.06
2023-04-15T17:47:38.653Z,12.04
2023-04-15T17:50:07.940Z,12.01
2023-04-15T17:52:36.127Z,12.00
2023-04-15T17:55:04.279Z,11.98
2023-04-15T17:57:32.597Z,11.95
2023-04-15T18:00:02.445Z,11.91
2023-04-15T18:02:30.947Z,11.91
2023-04-15T18:04:59.644Z,11.81
2023-04-15T18:07:27.926Z,11.77
2023-04-15T18:09:56.570Z,11.69
2023-04-15T18:12:24.736Z,11.63
2023-04-15T18:14:52.852Z,11.56
2023-04-15T18:17:22.533Z,11.46
2023-04-15T18:19:51.767Z,11.39
2023-04-15T18:22:19.931Z,11.37
2023-04-15T18:24:49.969Z,11.34
2023-04-15T18:27:18.478Z,11.31
2023-04-15T18:29:46.706Z,11.23
2023-04-15T18:32:14.850Z,11.19
2023-04-15T18:34:44.377Z,11.11
2023-04-15T18:37:12.521Z,11.05
2023-04-15T18:39:40.728Z,11.04
2023-04-15T18:42:08.889Z,10.99
2023-04-15T18:44:37.033Z,10.96
2023-04-15T18:47:05.406Z,10.97
2023-04-15T18:49:34.352Z,10.93
2023-04-15T18:52:04.161Z,10.91
2023-04-15T18:54:32.279Z,10.83
2023-04-15T18:57:01.040Z,10.75
2023-04-15T18:59:30.744Z,10.67
2023-04-15T19:02:00.523Z,10.67
2023-04-15T19:04:30.051Z,10.64
2023-04-15T19:06:59.158Z,10.65
2023-04-15T19:09:29.995Z,10.70
2023-04-15T19:11:58.357Z,10.75
2023-04-15T19:14:26.503Z,10.77
2023-04-15T19:16:54.714Z,10.78
2023-04-15T19:19:22.898Z,10.77
2023-04-15T19:21:51.350Z,10.73
2023-04-15T19:24:19.722Z,10.72
2023-04-15T19:26:51.384Z,10.74
2023-04-15T19:29:19.950Z,10.69
2023-04-15T19:31:48.139Z,10.65
2023-04-15T19:34:16.254Z,10.62
2023-04-15T19:36:45.715Z,10.62
2023-04-15T19:39:14.687Z,10.63
2023-04-15T19:41:44.413Z,10.61
2023-04-15T19:44:14.073Z,10.56
2023-04-15T19:46:44.769Z,10.55
2023-04-15T19:49:13.196Z,10.55
2023-04-15T19:51:42.341Z,10.54
2023-04-15T19:54:10.556Z,10.47
2023-04-15T19:56:38.880Z,10.38
2023-04-15T19:59:07.505Z,10.35
2023-04-15T20:01:37.321Z,10.40
2023-04-15T20:04:05.917Z,10.45
2023-04-15T20:06:34.062Z,10.40
2023-04-15T20:09:02.674Z,10.34
2023-04-15T20:12:44.908Z,10.31
2023-04-15T20:14:19.209Z,10.32
2023-04-15T20:16:48.801Z,10.35
2023-04-15T20:19:16.922Z,10.36
2023-04-15T20:21:45.489Z,10.37
2023-04-15T20:24:13.611Z,10.35
2023-04-15T20:26:41.755Z,10.25
2023-04-15T20:29:09.897Z,10.20
2023-04-15T20:31:38.178Z,10.16
2023-04-15T20:34:09.979Z,10.13
2023-04-15T20:36:39.489Z,10.15
2023-04-15T20:39:08.067Z,10.13
2023-04-15T20:41:36.311Z,10.07
2023-04-15T20:44:04.563Z,10.04
2023-04-15T20:46:32.713Z,10.05
2023-04-15T20:49:02.106Z,10.07
2023-04-15T20:51:37.627Z,10.12
2023-04-15T20:54:06.001Z,10.13
2023-04-15T20:56:34.317Z,10.14
2023-04-15T20:59:02.979Z,10.14
2023-04-15T21:01:31.285Z,10.14
2023-04-15T21:04:00.205Z,10.16
2023-04-15T21:06:28.394Z,10.17
2023-04-15T21:08:57.910Z,10.24
2023-04-15T21:11:46.209Z,10.34
2023-04-15T21:14:14.179Z,10.44
2023-04-15T21:16:42.594Z,10.51
2023-04-15T21:19:10.979Z,10.55
2023-04-15T21:21:39.166Z,10.56
2023-04-15T21:24:08.989Z,10.59
2023-04-15T21:26:37.131Z,10.63
2023-04-15T21:29:06.615Z,10.64
2023-04-15T21:31:36.124Z,10.66
2023-04-15T21:34:04.274Z,10.67
2023-04-15T21:36:32.884Z,10.64
2023-04-15T21:39:01.086Z,10.64
2023-04-15T21:41:31.225Z,10.59
2023-04-15T21:43:59.638Z,10.53
2023-04-15T21:46:33.276Z,10.49
2023-04-15T21:49:06.455Z,10.40
2023-04-15T21:51:35.043Z,10.31
2023-04-15T21:54:03.151Z,10.21
2023-04-15T21:56:33.755Z,10.13
2023-04-15T21:59:01.924Z,10.07
2023-04-15T22:01:30.195Z,10.02
2023-04-15T22:03:58.590Z,9.99
2023-04-15T22:06:27.159Z,9.94
2023-04-15T22:08:57.765Z,9.92
2023-04-15T22:11:41.401Z,9.97
2023-04-15T22:14:09.587Z,10.03
2023-04-15T22:16:37.704Z,10.06
2023-04-15T22:19:06.009Z,10.06
2023-04-15T22:21:34.089Z,10.07
2023-04-15T22:24:35.248Z,10.12
2023-04-15T22:26:51.517Z,10.20
2023-04-15T22:29:19.609Z,10.25
2023-04-15T22:31:47.704Z,10.29
2023-04-15T22:34:21.206Z,10.32
2023-04-15T22:36:49.603Z,10.36
2023-04-15T22:39:17.854Z,10.39
2023-04-15T22:41:46.016Z,10.42
2023-04-15T22:44:15.530Z,10.46
2023-04-15T22:46:43.880Z,10.50
2023-04-15T22:49:12.001Z,10.51
2023-04-15T22:51:40.073Z,10.54
2023-04-15T22:54:08.093Z,10.51
2023-04-15T22:56:36.062Z,10.54
2023-04-15T22:59:04.066Z,10.51
2023-04-15T23:01:33.473Z,10.49
2023-04-15T23:04:06.000Z,10.47
2023-04-15T23:06:35.165Z,10.51
2023-04-15T23:09:03.210Z,10.57
2023-04-15T23:11:31.363Z,10.58
2023-04-15T23:13:59.387Z,10.50
2023-04-15T23:16:28.634Z,10.44
2023-04-15T23:18:58.133Z,10.39
2023-04-15T23:21:27.473Z,10.38
2023-04-15T23:23:55.741Z,10.28
2023-04-15T23:26:23.767Z,10.25
2023-04-15T23:28:51.866Z,10.25
2023-04-15T23:31:19.941Z,10.33
2023-04-15T23:33:48.119Z,10.42
2023-04-15T23:36:17.659Z,10.50
2023-04-15T23:38:45.826Z,10.58
2023-04-15T23:41:13.817Z,10.65
2023-04-15T23:43:41.890Z,10.70
2023-04-15T23:46:09.889Z,10.69
2023-04-15T23:48:37.938Z,10.62
2023-04-15T23:51:06.708Z,10.62
2023-04-15T23:53:36.435Z,10.60
2023-04-15T23:56:04.713Z,10.64
2023-04-15T23:58:34.505Z,10.59
